createdAt,value
2023-01-27T00:03:25.062Z,3.71
2023-01-27T00:08:28.213Z,3.77
2023-01-27T00:13:31.891Z,3.82
2023-01-27T00:18:33.233Z,3.88
2023-01-27T00:23:52.895Z,3.92
2023-01-27T00:28:54.250Z,3.93
2023-01-27T00:34:01.749Z,3.91
2023-01-27T00:39:04.295Z,3.97
2023-01-27T00:44:06.019Z,3.99
2023-01-27T00:49:07.702Z,4.00
2023-01-27T00:54:09.154Z,4.02
2023-01-27T00:59:10.520Z,3.97
2023-01-27T01:04:11.889Z,4.03
2023-01-27T01:09:13.238Z,4.02
2023-01-27T01:14:14.697Z,4.02
2023-01-27T01:19:16.002Z,4.06
2023-01-27T01:24:17.741Z,4.09
2023-01-27T01:29:19.145Z,4.12
2023-01-27T01:34:20.470Z,4.11
2023-01-27T01:39:21.786Z,4.16
2023-01-27T01:44:26.376Z,4.21
2023-01-27T01:49:39.223Z,4.25
2023-01-27T01:54:48.454Z,4.29
2023-01-27T02:00:01.744Z,4.29
2023-01-27T02:05:11.262Z,4.27
2023-01-27T02:10:13.215Z,4.25
2023-01-27T02:15:15.282Z,4.25
2023-01-27T02:20:43.587Z,4.28
2023-01-27T02:25:53.066Z,4.26
2023-01-27T02:30:54.513Z,4.23
2023-01-27T02:36:03.118Z,4.24
2023-01-27T02:41:40.489Z,4.26
2023-01-27T02:46:41.828Z,4.23
2023-01-27T02:51:43.331Z,4.24
2023-01-27T02:56:44.651Z,4.30
2023-01-27T03:01:46.062Z,4.25
2023-01-27T03:06:47.450Z,4.25
2023-01-27T03:12:07.475Z,4.27
2023-01-27T03:17:27.260Z,4.27
2023-01-27T03:22:28.662Z,4.25
2023-01-27T03:27:30.032Z,4.25
2023-01-27T03:32:32.557Z,4.23
2023-01-27T03:37:52.321Z,4.29
2023-01-27T03:43:12.634Z,4.23
2023-01-27T03:48:14.163Z,4.31
2023-01-27T03:53:15.486Z,4.30
2023-01-27T03:58:28.339Z,4.30
2023-01-27T04:03:51.141Z,4.29
2023-01-27T04:08:52.611Z,4.33
2023-01-27T04:13:54.071Z,4.34
2023-01-27T04:18:56.836Z,4.38
2023-01-27T04:23:58.457Z,4.38
2023-01-27T04:29:00.976Z,4.37
2023-01-27T04:34:02.337Z,4.36
2023-01-27T04:39:03.809Z,4.34
2023-01-27T04:44:06.059Z,4.37
2023-01-27T04:49:08.061Z,4.38
2023-01-27T04:54:09.428Z,4.40
2023-01-27T04:59:12.718Z,4.36
2023-01-27T05:04:14.077Z,4.39
2023-01-27T05:09:15.446Z,4.40
2023-01-27T05:14:16.847Z,4.41
2023-01-27T05:19:18.220Z,4.38
2023-01-27T05:24:19.551Z,4.32
2023-01-27T05:29:21.026Z,4.34
2023-01-27T05:34:22.736Z,4.32
2023-01-27T05:39:24.088Z,4.29
2023-01-27T05:44:25.437Z,4.33
2023-01-27T05:49:26.795Z,4.32
2023-01-27T05:54:28.252Z,4.31
2023-01-27T05:59:29.572Z,4.24
2023-01-27T06:04:30.969Z,4.21
2023-01-27T06:09:32.306Z,4.11
2023-01-27T06:14:33.660Z,4.12
2023-01-27T06:19:34.967Z,4.16
2023-01-27T06:24:36.335Z,4.19
2023-01-27T06:29:37.727Z,4.24
2023-01-27T06:34:39.691Z,4.25
2023-01-27T06:39:41.054Z,4.29
2023-01-27T06:44:42.377Z,4.32
2023-01-27T06:49:43.744Z,4.36
2023-01-27T06:54:45.139Z,4.42
2023-01-27T06:59:46.514Z,4.45
2023-01-27T07:04:48.275Z,4.51
2023-01-27T07:09:52.633Z,4.67
2023-01-27T07:14:54.414Z,4.73
2023-01-27T07:19:55.759Z,4.72
2023-01-27T07:24:57.312Z,4.79
2023-01-27T07:29:58.634Z,4.94
2023-01-27T07:34:59.951Z,4.97
2023-01-27T07:40:01.291Z,4.95
2023-01-27T07:45:02.730Z,4.99
2023-01-27T07:50:04.362Z,5.06
2023-01-27T07:55:06.263Z,5.07
2023-01-27T08:00:08.086Z,5.04
2023-01-27T08:05:09.395Z,5.07
2023-01-27T08:10:11.400Z,5.10
2023-01-27T08:15:14.042Z,5.06
2023-01-27T08:20:15.757Z,5.19
2023-01-27T08:25:17.250Z,5.17
2023-01-27T08:30:19.678Z,5.26
2023-01-27T08:35:21.128Z,5.24
2023-01-27T08:40:22.549Z,5.24
2023-01-27T08:45:23.964Z,5.29
2023-01-27T08:50:25.431Z,5.39
2023-01-27T08:55:31.244Z,5.43
2023-01-27T09:00:32.582Z,5.46
2023-01-27T09:05:35.714Z,5.46
2023-01-27T09:10:39.523Z,5.54
2023-01-27T09:15:40.939Z,5.64
2023-01-27T09:20:42.277Z,5.64
2023-01-27T09:25:43.648Z,5.76
2023-01-27T09:30:46.290Z,5.73
2023-01-27T09:35:57.922Z,5.72
2023-01-27T09:41:36.559Z,5.84
2023-01-27T09:47:13.408Z,5.88
2023-01-27T09:52:52.342Z,5.98
2023-01-27T09:58:10.044Z,6.00
2023-01-27T10:03:37.004Z,5.94
2023-01-27T10:08:59.628Z,5.90
2023-01-27T10:14:26.185Z,5.97
2023-01-27T10:19:48.728Z,5.99
2023-01-27T10:25:28.767Z,6.07
2023-01-27T10:30:34.978Z,6.18
2023-01-27T10:35:58.002Z,6.31
2023-01-27T10:41:27.146Z,6.32
2023-01-27T10:46:56.389Z,6.47
2023-01-27T10:52:05.565Z,6.47
2023-01-27T10:57:17.735Z,6.59
2023-01-27T11:02:32.094Z,6.63
2023-01-27T11:07:46.052Z,6.77
2023-01-27T11:12:51.206Z,6.77
2023-01-27T11:18:10.774Z,6.84
2023-01-27T11:23:21.082Z,6.87
2023-01-27T11:28:42.579Z,6.86
2023-01-27T11:33:46.701Z,6.79
2023-01-27T11:38:48.127Z,6.84
2023-01-27T11:43:50.033Z,6.90
2023-01-27T11:48:56.735Z,6.92
2023-01-27T11:54:15.563Z,6.83
2023-01-27T11:59:32.648Z,6.77
2023-01-27T12:05:01.373Z,6.92
2023-01-27T12:10:03.717Z,6.84
2023-01-27T12:15:05.474Z,6.72
2023-01-27T12:20:32.115Z,6.80
2023-01-27T12:25:46.025Z,6.75
2023-01-27T12:30:48.056Z,6.75
2023-01-27T12:35:50.507Z,6.75
2023-01-27T12:41:04.421Z,6.70
2023-01-27T12:46:19.918Z,6.69
2023-01-27T12:51:24.021Z,6.76
2023-01-27T12:56:25.749Z,6.90
2023-01-27T13:01:33.892Z,6.90
2023-01-27T13:06:43.312Z,6.79
2023-01-27T13:11:45.349Z,6.85
2023-01-27T13:16:55.042Z,6.90
2023-01-27T13:21:56.984Z,6.90
2023-01-27T13:27:00.649Z,6.94
2023-01-27T13:32:23.304Z,6.94
2023-01-27T13:37:48.074Z,7.09
2023-01-27T13:43:10.530Z,7.03
2023-01-27T13:48:26.158Z,7.02
2023-01-27T13:53:27.611Z,6.95
2023-01-27T13:59:19.829Z,7.08
2023-01-27T14:04:55.889Z,7.11
2023-01-27T14:10:23.790Z,7.03
2023-01-27T14:15:51.910Z,7.02
2023-01-27T14:21:14.115Z,6.97
2023-01-27T14:26:48.265Z,6.97
2023-01-27T14:32:04.579Z,7.05
2023-01-27T14:37:22.240Z,7.19
2023-01-27T14:42:41.244Z,7.21
2023-01-27T14:48:10.962Z,7.17
2023-01-27T14:53:34.587Z,7.14
2023-01-27T14:58:51.005Z,7.14
2023-01-27T15:04:25.431Z,7.12
2023-01-27T15:09:39.683Z,7.11
2023-01-27T15:15:03.189Z,7.14
2023-01-27T15:20:29.039Z,7.17
2023-01-27T15:25:44.373Z,7.13
2023-01-27T15:31:09.904Z,7.11
2023-01-27T15:36:32.296Z,7.06
2023-01-27T15:41:33.591Z,7.03
2023-01-27T15:46:37.371Z,7.04
2023-01-27T15:51:38.749Z,6.98
2023-01-27T15:56:47.686Z,6.93
2023-01-27T16:01:58.883Z,6.94
2023-01-27T16:07:02.921Z,7.02
2023-01-27T16:12:20.039Z,6.95
2023-01-27T16:17:25.677Z,6.96
2023-01-27T16:22:30.692Z,6.93
2023-01-27T16:27:51.507Z,6.90
2023-01-27T16:33:07.401Z,6.86
2023-01-27T16:38:24.324Z,6.81
2023-01-27T16:43:31.805Z,6.77
2023-01-27T16:48:45.080Z,6.72
2023-01-27T16:53:48.788Z,6.69
2023-01-27T16:58:51.790Z,6.65
2023-01-27T17:03:56.906Z,6.65
2023-01-27T17:08:59.287Z,6.64
2023-01-27T17:14:02.640Z,6.63
2023-01-27T17:19:21.190Z,6.61
2023-01-27T17:24:27.132Z,6.62
2023-01-27T17:30:03.716Z,6.55
2023-01-27T17:35:08.581Z,6.49
2023-01-27T17:40:18.286Z,6.49
2023-01-27T17:45:23.332Z,6.48
2023-01-27T17:50:31.460Z,6.43
2023-01-27T17:55:32.889Z,6.41
2023-01-27T18:00:42.463Z,6.44
2023-01-27T18:05:46.236Z,6.46
2023-01-27T18:10:47.661Z,6.41
2023-01-27T18:15:50.101Z,6.35
2023-01-27T18:20:57.367Z,6.25
2023-01-27T18:26:12.816Z,6.24
2023-01-27T18:31:22.331Z,6.21
2023-01-27T18:36:28.123Z,6.20
2023-01-27T18:41:32.722Z,6.11
2023-01-27T18:46:34.086Z,6.14
2023-01-27T18:51:35.419Z,6.10
2023-01-27T18:56:36.756Z,6.03
2023-01-27T19:01:38.139Z,6.01
2023-01-27T19:06:39.530Z,6.00
2023-01-27T19:11:40.937Z,6.02
2023-01-27T19:16:42.445Z,6.03
2023-01-27T19:21:43.782Z,6.01
2023-01-27T19:26:45.622Z,5.99
2023-01-27T19:31:47.002Z,5.94
2023-01-27T19:36:48.411Z,5.89
2023-01-27T19:41:49.787Z,5.81
2023-01-27T19:46:51.219Z,5.77
2023-01-27T19:51:53.491Z,5.76
2023-01-27T19:56:54.812Z,5.67
2023-01-27T20:01:56.930Z,5.64
2023-01-27T20:06:58.450Z,5.63
2023-01-27T20:12:00.813Z,5.57
2023-01-27T20:17:02.416Z,5.55
2023-01-27T20:22:03.776Z,5.45
2023-01-27T20:27:05.097Z,5.40
2023-01-27T20:32:09.346Z,5.41
2023-01-27T20:37:11.193Z,5.41
2023-01-27T20:42:12.598Z,5.45
2023-01-27T20:47:15.212Z,5.47
2023-01-27T20:52:16.576Z,5.50
2023-01-27T20:57:20.681Z,5.48
2023-01-27T21:02:22.030Z,5.50
2023-01-27T21:07:24.321Z,5.44
2023-01-27T21:12:27.217Z,5.42
2023-01-27T21:17:28.561Z,5.43
2023-01-27T21:22:29.888Z,5.48
2023-01-27T21:27:31.220Z,5.52
2023-01-27T21:32:32.550Z,5.59
2023-01-27T21:37:36.021Z,5.60
2023-01-27T21:42:55.676Z,5.60
2023-01-27T21:47:57.040Z,5.59
2023-01-27T21:52:58.429Z,5.48
2023-01-27T21:58:00.533Z,5.58
2023-01-27T22:03:03.735Z,5.62
2023-01-27T22:08:06.730Z,5.60
2023-01-27T22:13:10.521Z,5.59
2023-01-27T22:18:12.418Z,5.57
2023-01-27T22:23:13.788Z,5.53
2023-01-27T22:28:15.400Z,5.57
2023-01-27T22:33:16.841Z,5.61
2023-01-27T22:44:29.415Z,5.58
2023-01-27T22:49:30.992Z,5.50
2023-01-27T22:54:32.807Z,5.44
2023-01-27T23:00:09.470Z,5.39
2023-01-27T23:05:13.720Z,5.39
2023-01-27T23:10:16.386Z,5.29
2023-01-27T23:21:48.793Z,5.35
2023-01-27T23:33:25.031Z,5.28
2023-01-27T23:38:34.231Z,5.18
2023-01-27T23:43:38.753Z,5.10
2023-01-27T23:48:40.373Z,5.07
2023-01-27T23:53:42.384Z,4.98
2023-01-27T23:58:46.327Z,4.97
